Time;durP1;ratioP1;P1;durP2;ratioP2;P2;SDS_P1;SDS_P2;PMS_P1;PMS_P2;Temp;Humidity;BMP_temperature;BMP_pressure;BME280_temperature;BME280_humidity;BME280_pressure;Samples;Min_cycle;Max_cycle;Signal;HPM_P1;HPM_P2
2022/05/02 00:00:09;;;;;;;9.10;6.80;;;;;;;14.30;42.71;102046.00;5122655;28;20048;-61
2022/05/02 00:02:38;;;;;;;8.90;6.47;;;;;;;14.24;43.22;102035.22;5119362;28;20039;-61
2022/05/02 00:05:07;;;;;;;12.30;6.20;;;;;;;14.27;43.07;102034.81;5119409;28;20052;-61
2022/05/02 00:07:35;;;;;;;9.02;6.88;;;;;;;14.25;42.74;102039.59;5123791;28;20074;-62
2022/05/02 00:10:04;;;;;;;11.10;7.05;;;;;;;14.25;42.79;102039.59;5118793;28;20077;-62
2022/05/02 00:12:33;;;;;;;13.68;6.53;;;;;;;14.23;43.10;102033.56;5120270;28;20082;-61
2022/05/02 00:15:01;;;;;;;11.07;7.10;;;;;;;14.21;43.29;102033.78;5120876;28;20048;-62
2022/05/02 00:20:14;;;;;;;10.48;7.10;;;;;;;14.20;43.06;102031.31;5123023;28;20075;-61
2022/05/02 00:22:42;;;;;;;11.27;6.88;;;;;;;14.17;43.32;102027.16;5113810;28;20099;-61
2022/05/02 00:25:09;;;;;;;11.50;7.63;;;;;;;14.17;42.90;102029.88;5122450;28;20158;-61
2022/05/02 00:27:40;;;;;;;12.85;8.07;;;;;;;14.12;42.83;102020.75;5126780;28;20058;-62
2022/05/02 00:30:09;;;;;;;9.95;7.38;;;;;;;14.14;43.02;102022.19;5134496;27;20503;-62
2022/05/02 00:32:37;;;;;;;10.80;7.47;;;;;;;14.10;43.10;102020.97;5117027;28;20073;-61
2022/05/02 00:35:07;;;;;;;9.90;6.57;;;;;;;14.11;43.37;102021.78;5123538;28;20082;-61
2022/05/02 00:37:34;;;;;;;9.50;7.47;;;;;;;14.10;42.83;102017.44;5122990;27;20473;-61
2022/05/02 00:40:02;;;;;;;11.80;7.30;;;;;;;14.08;42.93;102012.25;5118035;28;20079;-62
2022/05/02 00:42:30;;;;;;;12.38;7.45;;;;;;;14.08;43.32;102012.25;5120903;28;20043;-62
2022/05/02 00:44:59;;;;;;;11.40;7.95;;;;;;;14.06;43.38;102010.78;5125461;28;20087;-61
2022/05/02 00:47:27;;;;;;;10.27;7.20;;;;;;;14.05;43.28;102009.97;5127397;27;20070;-62
2022/05/02 00:49:55;;;;;;;9.63;7.03;;;;;;;14.04;43.53;102012.88;5124336;28;20079;-61
2022/05/02 00:52:23;;;;;;;10.95;7.57;;;;;;;14.02;43.46;102010.41;5115102;27;20107;-61
2022/05/02 00:54:50;;;;;;;12.55;7.53;;;;;;;13.99;43.13;102006.25;5126881;28;20058;-61
2022/05/02 00:57:18;;;;;;;11.43;7.80;;;;;;;13.96;43.39;102005.84;5125712;27;20108;-62
2022/05/02 00:59:46;;;;;;;9.60;7.57;;;;;;;13.98;43.77;102001.06;5120723;27;20082;-62
2022/05/02 01:02:16;;;;;;;11.00;7.43;;;;;;;13.96;43.65;102009.38;5125590;28;20079;-62
2022/05/02 01:04:44;;;;;;;12.73;8.05;;;;;;;13.93;43.47;102004.41;5124348;28;20043;-63
2022/05/02 01:07:12;;;;;;;10.70;6.95;;;;;;;13.92;43.41;102002.75;5123418;28;20075;-62
2022/05/02 01:09:42;;;;;;;13.63;7.20;;;;;;;13.89;43.35;102002.34;5125341;27;20047;-63
2022/05/02 01:12:12;;;;;;;12.05;7.82;;;;;;;13.90;43.45;102006.72;5115002;28;20071;-62
2022/05/02 01:14:40;;;;;;;10.35;7.82;;;;;;;13.87;43.76;102007.97;5125623;28;20091;-63
2022/05/02 01:17:08;;;;;;;10.88;7.95;;;;;;;13.85;43.89;102006.56;5125182;28;20059;-62
2022/05/02 01:19:37;;;;;;;9.63;7.93;;;;;;;13.82;43.67;101998.88;5123151;28;20079;-62
2022/05/02 01:22:08;;;;;;;11.15;7.72;;;;;;;13.82;43.79;102004.28;5125369;28;20090;-63
2022/05/02 01:24:37;;;;;;;10.93;8.05;;;;;;;13.79;43.64;101999.31;5113360;28;20079;-62
2022/05/02 01:27:07;;;;;;;14.35;8.98;;;;;;;13.78;43.72;102003.06;5126161;28;20058;-63
2022/05/02 01:29:36;;;;;;;11.57;8.10;;;;;;;13.76;44.05;101997.06;5127127;27;20082;-63
2022/05/02 01:32:07;;;;;;;12.88;8.80;;;;;;;13.64;43.93;101989.63;5123839;28;20074;-63
2022/05/02 01:34:35;;;;;;;12.00;7.93;;;;;;;13.73;43.99;101994.78;5125500;28;20071;-63
2022/05/02 01:37:03;;;;;;;13.50;8.43;;;;;;;13.65;44.11;101983.16;5125975;28;20094;-63
2022/05/02 01:39:33;;;;;;;9.68;7.40;;;;;;;13.68;43.80;101988.16;5120486;28;20153;-63
2022/05/02 01:42:01;;;;;;;13.60;8.27;;;;;;;13.69;43.70;101997.06;5124754;28;20078;-63
2022/05/02 01:44:28;;;;;;;10.68;7.75;;;;;;;13.67;44.10;101993.75;5125196;28;20463;-62
2022/05/02 01:46:57;;;;;;;12.38;8.00;;;;;;;13.53;43.90;101978.66;5110522;28;20083;-63
2022/05/02 01:49:24;;;;;;;13.02;8.82;;;;;;;13.63;44.08;101989.81;5125261;28;20094;-63
2022/05/02 01:51:52;;;;;;;11.25;8.45;;;;;;;13.62;43.82;101996.28;5127486;27;20078;-62
2022/05/02 01:54:21;;;;;;;11.10;8.38;;;;;;;13.58;44.13;101987.78;5124073;28;20044;-63
2022/05/02 01:56:50;;;;;;;11.10;8.38;;;;;;;13.59;44.27;101991.31;5124437;28;20080;-62
2022/05/02 01:59:18;;;;;;;13.45;8.63;;;;;;;13.56;43.82;101987.16;5126905;27;20070;-61
2022/05/02 02:01:45;;;;;;;12.35;8.52;;;;;;;13.50;44.19;101974.50;5119006;28;20486;-63
2022/05/02 02:06:59;;;;;;;13.77;9.35;;;;;;;13.53;43.98;101984.88;5124946;28;20055;-62
2022/05/02 02:09:26;;;;;;;15.93;8.90;;;;;;;13.49;44.05;101983.66;5123564;27;20087;-62
2022/05/02 02:11:56;;;;;;;11.60;8.13;;;;;;;13.47;44.02;101979.50;5115357;28;20059;-62
2022/05/02 02:14:23;;;;;;;11.35;8.35;;;;;;;13.49;43.87;101983.66;5119023;28;20418;-62
2022/05/02 02:16:51;;;;;;;13.82;8.65;;;;;;;13.49;43.97;101985.53;5125126;28;20071;-61
2022/05/02 02:19:19;;;;;;;13.48;8.45;;;;;;;13.48;44.51;101987.38;5124096;27;20115;-62
2022/05/02 02:21:47;;;;;;;12.57;8.75;;;;;;;13.46;44.07;101986.78;5125281;28;20071;-62
2022/05/02 02:24:15;;;;;;;10.52;8.13;;;;;;;13.46;44.33;101985.94;5114317;28;20047;-62
2022/05/02 02:26:43;;;;;;;15.40;9.07;;;;;;;13.45;44.34;101982.41;5124895;28;20074;-62
2022/05/02 02:29:12;;;;;;;11.05;9.18;;;;;;;13.44;44.19;101979.94;5118558;28;20081;-63
2022/05/02 02:31:39;;;;;;;11.10;8.82;;;;;;;13.43;44.15;101978.28;5124807;28;20074;-63
2022/05/02 02:34:07;;;;;;;10.70;7.82;;;;;;;13.41;44.11;101978.47;5122688;28;20103;-63
2022/05/02 02:36:35;;;;;;;13.23;9.38;;;;;;;13.40;44.12;101978.69;5115921;28;20098;-62
2022/05/02 02:39:03;;;;;;;14.13;8.93;;;;;;;13.39;44.21;101974.34;5124118;28;20583;-63
2022/05/02 02:41:30;;;;;;;13.00;9.27;;;;;;;13.37;44.57;101974.56;5122941;28;20086;-63
2022/05/02 02:43:58;;;;;;;15.43;9.15;;;;;;;13.37;44.48;101969.16;5121300;28;20127;-64
2022/05/02 02:46:27;;;;;;;15.48;9.23;;;;;;;13.36;44.17;101970.19;5118546;28;20078;-63
2022/05/02 02:48:55;;;;;;;12.68;9.30;;;;;;;13.33;44.35;101971.44;5124943;28;20094;-62
2022/05/02 02:51:22;;;;;;;16.40;9.20;;;;;;;13.33;44.27;101970.63;5126066;27;20051;-62
2022/05/02 02:53:51;;;;;;;13.30;9.23;;;;;;;13.30;44.70;101971.03;5124353;28;20122;-62
2022/05/02 02:56:19;;;;;;;12.48;9.05;;;;;;;13.30;44.26;101971.03;5115459;27;20047;-63
2022/05/02 02:58:47;;;;;;;14.27;9.30;;;;;;;13.28;44.53;101968.56;5123094;28;20052;-62
2022/05/02 03:01:15;;;;;;;11.52;9.15;;;;;;;13.27;44.46;101971.47;5111816;27;20059;-62
2022/05/02 03:03:44;;;;;;;14.07;9.35;;;;;;;13.24;44.79;101959.22;5132359;27;20058;-62
2022/05/02 03:06:11;;;;;;;13.13;9.07;;;;;;;13.17;44.43;101960.28;5124231;28;20047;-62
2022/05/02 03:08:40;;;;;;;13.48;9.60;;;;;;;13.19;44.47;101959.03;5122025;28;20044;-63
2022/05/02 03:11:08;;;;;;;15.65;10.43;;;;;;;13.18;44.50;101954.66;5130537;27;20053;-62
2022/05/02 03:13:36;;;;;;;13.77;9.77;;;;;;;13.17;44.77;101954.88;5114744;27;20048;-62
2022/05/02 03:16:04;;;;;;;11.63;9.02;;;;;;;13.15;44.28;101956.94;5115482;27;20046;-61
2022/05/02 03:18:34;;;;;;;12.50;9.45;;;;;;;13.13;44.73;101953.63;5118831;27;20051;-62
2022/05/02 03:21:03;;;;;;;15.15;10.48;;;;;;;13.13;44.80;101953.63;5121692;28;20460;-62
2022/05/02 03:23:30;;;;;;;18.58;11.18;;;;;;;13.11;44.84;101953.00;5129841;27;20137;-62
2022/05/02 03:25:58;;;;;;;12.25;9.65;;;;;;;13.09;44.66;101949.69;5112598;28;20278;-62
2022/05/02 03:28:26;;;;;;;15.48;9.63;;;;;;;13.07;45.13;101941.78;5113590;28;20071;-62
2022/05/02 03:30:54;;;;;;;12.95;10.05;;;;;;;13.07;44.82;101957.16;5123019;28;20108;-62
2022/05/02 03:33:21;;;;;;;14.40;9.57;;;;;;;13.06;44.58;101947.41;5122344;28;20111;-62
2022/05/02 03:35:49;;;;;;;13.25;10.23;;;;;;;13.03;44.91;101946.78;5116242;28;20083;-63
2022/05/02 03:38:18;;;;;;;14.75;9.73;;;;;;;13.03;44.80;101951.34;5122629;28;20090;-60
2022/05/02 03:40:46;;;;;;;13.10;10.18;;;;;;;13.00;44.99;101943.69;5123476;28;20086;-63
2022/05/02 03:43:14;;;;;;;16.73;11.25;;;;;;;12.98;45.07;101949.28;5115537;28;20388;-62
2022/05/02 03:45:41;;;;;;;18.10;10.55;;;;;;;12.98;45.04;101948.44;5131580;28;20145;-62
2022/05/02 03:48:09;;;;;;;14.75;9.73;;;;;;;12.96;45.07;101951.38;5122787;28;20121;-62
2022/05/02 03:50:37;;;;;;;14.80;9.90;;;;;;;12.95;44.82;101946.19;5123466;28;20067;-62
2022/05/02 03:53:05;;;;;;;12.68;9.57;;;;;;;12.92;45.22;101944.72;5124016;28;20052;-62
2022/05/02 03:55:34;;;;;;;14.18;9.20;;;;;;;12.92;44.91;101949.28;5122781;28;20048;-61
2022/05/02 03:58:02;;;;;;;15.55;9.73;;;;;;;12.89;44.98;101953.25;5127564;28;20105;-62
2022/05/02 04:00:30;;;;;;;14.85;10.38;;;;;;;12.87;44.99;101941.84;5122690;28;20051;-60
2022/05/02 04:02:57;;;;;;;13.07;9.68;;;;;;;12.85;45.04;101949.31;5123839;28;20058;-62
2022/05/02 04:05:25;;;;;;;16.27;9.90;;;;;;;12.85;45.14;101949.31;5124073;27;20051;-62
2022/05/02 04:07:53;;;;;;;18.20;11.93;;;;;;;12.85;45.20;101948.47;5127611;27;20047;-62
2022/05/02 04:10:21;;;;;;;14.65;9.63;;;;;;;12.82;45.26;101947.03;5131821;27;20079;-63
2022/05/02 04:12:50;;;;;;;14.68;10.30;;;;;;;12.82;45.27;101951.59;5121174;28;20036;-62
2022/05/02 04:15:18;;;;;;;14.88;10.07;;;;;;;12.80;45.48;101949.09;5124513;27;20067;-63
2022/05/02 04:17:46;;;;;;;16.02;10.18;;;;;;;12.80;45.20;101950.97;5116187;28;20062;-61
2022/05/02 04:20:14;;;;;;;12.65;9.68;;;;;;;12.79;45.22;101947.44;5124867;28;20500;-61
2022/05/02 04:22:41;;;;;;;15.80;10.25;;;;;;;12.79;45.36;101943.91;5122841;28;20075;-62
2022/05/02 04:25:10;;;;;;;15.32;9.95;;;;;;;12.78;45.28;101951.19;5130907;27;20070;-62
2022/05/02 04:27:37;;;;;;;13.70;10.52;;;;;;;12.76;45.43;101947.88;5132120;27;20518;-61
2022/05/02 04:30:08;;;;;;;15.02;10.43;;;;;;;12.75;45.23;101951.59;5125431;28;20131;-62
2022/05/02 04:32:36;;;;;;;12.48;9.55;;;;;;;12.74;45.43;101944.53;5127320;28;20082;-62
2022/05/02 04:35:05;;;;;;;15.98;10.73;;;;;;;12.74;45.41;101952.63;5122553;27;20060;-61
2022/05/02 04:37:32;;;;;;;15.23;10.35;;;;;;;12.72;45.60;101946.63;5125302;27;20108;-61
2022/05/02 04:40:00;;;;;;;14.50;9.95;;;;;;;12.71;45.40;101944.97;5127325;27;20281;-62
2022/05/02 04:42:28;;;;;;;13.68;10.15;;;;;;;12.70;45.67;101937.91;5126750;28;20078;-61
2022/05/02 04:44:55;;;;;;;18.73;11.25;;;;;;;12.68;45.73;101945.38;5133983;27;20075;-62
2022/05/02 04:47:24;;;;;;;13.85;10.05;;;;;;;12.67;45.76;101949.13;5117535;28;20051;-61
2022/05/02 04:49:56;;;;;;;12.82;9.60;;;;;;;12.67;45.75;101946.41;5117014;28;20073;-62
2022/05/02 04:52:24;;;;;;;14.93;10.07;;;;;;;12.66;45.82;101942.06;5122756;28;20075;-61
2022/05/02 04:54:52;;;;;;;16.58;9.75;;;;;;;12.65;45.96;101943.09;5116685;28;20059;-61
2022/05/02 04:57:19;;;;;;;15.27;10.38;;;;;;;12.64;45.89;101947.66;5119811;28;20047;-62
2022/05/02 04:59:47;;;;;;;16.08;10.90;;;;;;;12.62;46.02;101947.03;5124565;28;20066;-61
2022/05/02 05:02:15;;;;;;;13.75;9.93;;;;;;;12.62;45.97;101954.31;5115273;28;20051;-61
2022/05/02 05:04:44;;;;;;;15.85;10.95;;;;;;;12.58;46.25;101950.38;5126372;27;20044;-62
2022/05/02 05:07:13;;;;;;;13.82;10.45;;;;;;;12.60;46.12;101956.38;5124829;28;20051;-62
2022/05/02 05:09:40;;;;;;;16.08;10.13;;;;;;;12.57;46.20;101960.31;5120546;27;20076;-64
2022/05/02 05:12:18;;;;;;;15.48;10.45;;;;;;;12.54;46.25;101949.13;5116111;27;21130;-62
2022/05/02 05:17:49;;;;;;;;;;;;;;;12.54;46.32;101957.22;5121116;28;20075;-63
2022/05/02 05:20:26;;;;;;;16.50;10.27;;;;;;;12.53;46.45;101959.09;4765211;27;10001013;-63
2022/05/02 05:23:10;;;;;;;17.83;11.52;;;;;;;12.52;46.71;101961.97;5117129;28;20123;-61
2022/05/02 05:26:09;;;;;;;15.55;10.77;;;;;;;12.51;46.34;101958.47;5118805;28;20205;-62
2022/05/02 05:28:52;;;;;;;19.23;10.38;;;;;;;12.51;46.42;101958.47;5029405;28;20153;-62
2022/05/02 05:31:31;;;;;;;14.73;10.13;;;;;;;12.53;46.59;101961.78;5036917;28;20088;-62
2022/05/02 05:34:06;;;;;;;14.27;10.00;;;;;;;12.53;46.86;101959.09;5028758;28;20057;-62
2022/05/02 05:36:55;;;;;;;16.20;11.35;;;;;;;12.51;46.83;101955.75;5035636;28;20089;-62
2022/05/02 05:39:30;;;;;;;15.55;10.38;;;;;;;12.53;46.73;101950.16;5028833;28;20057;-60
2022/05/02 05:42:08;;;;;;;14.27;10.85;;;;;;;12.53;46.71;101950.16;5030096;28;20092;-62
2022/05/02 05:44:51;;;;;;;15.68;11.00;;;;;;;12.54;46.88;101957.22;5032328;28;20052;-64
2022/05/02 05:47:33;;;;;;;12.63;10.18;;;;;;;12.56;46.89;101955.97;5037065;28;20700;-65
2022/05/02 05:50:11;;;;;;;15.57;10.30;;;;;;;12.56;46.84;101955.97;5034941;28;20053;-65
2022/05/02 05:52:54;;;;;;;15.25;9.80;;;;;;;12.56;46.80;101961.38;5042621;28;20058;-66
2022/05/02 05:55:27;;;;;;;14.70;10.43;;;;;;;12.57;46.69;101956.81;5035437;28;20072;-64
2022/05/02 05:58:03;;;;;;;16.55;11.07;;;;;;;12.56;46.92;101964.06;5037897;28;20165;-64
2022/05/02 06:00:35;;;;;;;13.03;10.27;;;;;;;12.57;46.89;101965.72;5023592;28;20096;-64
2022/05/02 06:03:12;;;;;;;16.92;10.63;;;;;;;12.59;46.79;101968.22;5024920;28;20121;-64
2022/05/02 06:05:41;;;;;;;15.90;9.55;;;;;;;12.54;46.98;101955.34;5120543;28;20078;-63
2022/05/02 06:08:14;;;;;;;18.98;10.40;;;;;;;12.61;47.13;101964.25;5125260;27;20062;-64
2022/05/02 06:10:43;;;;;;;12.65;10.07;;;;;;;12.61;46.92;101966.97;5118507;27;20059;-64
2022/05/02 06:13:11;;;;;;;15.75;10.20;;;;;;;12.62;47.13;101968.63;5111799;28;20127;-63
2022/05/02 06:18:45;;;;;;;15.65;10.63;;;;;;;12.67;46.96;101968.00;5118286;28;20036;-63
2022/05/02 06:21:14;;;;;;;18.27;9.90;;;;;;;12.68;47.33;101970.50;5122451;27;20075;-62
2022/05/02 06:23:46;;;;;;;14.57;9.73;;;;;;;12.71;46.99;101971.94;5122807;27;20122;-62
2022/05/02 06:26:15;;;;;;;17.95;8.98;;;;;;;12.69;47.22;101963.22;5122804;27;20055;-61
2022/05/02 06:28:46;;;;;;;11.88;8.75;;;;;;;12.74;47.22;101968.81;5124625;27;20071;-63
2022/05/02 06:31:20;;;;;;;13.48;9.38;;;;;;;12.75;47.34;101975.88;5119755;28;20058;-64
2022/05/02 06:33:50;;;;;;;13.43;8.85;;;;;;;12.77;47.31;101964.88;5118904;28;20055;-65
2022/05/02 06:36:43;;;;;;;16.90;9.32;;;;;;;12.79;47.36;101968.19;5121075;27;20051;-64
2022/05/02 06:39:28;;;;;;;15.80;10.07;;;;;;;12.80;47.27;101967.16;5114970;28;20082;-65
2022/05/02 06:42:20;;;;;;;19.27;9.43;;;;;;;12.78;47.42;101963.84;5119264;27;20354;-65
2022/05/02 06:45:02;;;;;;;13.50;9.23;;;;;;;12.84;47.25;101971.94;5113677;28;20087;-65
2022/05/02 06:47:44;;;;;;;13.63;9.10;;;;;;;12.88;47.19;101975.88;5118363;28;20080;-64
2022/05/02 06:50:16;;;;;;;12.60;8.95;;;;;;;12.85;47.45;101960.09;5115106;28;20056;-65
2022/05/02 06:52:54;;;;;;;11.50;9.10;;;;;;;12.92;47.23;101970.88;5119675;27;20169;-65
2022/05/02 06:55:31;;;;;;;10.45;8.25;;;;;;;12.95;47.13;101984.78;5108088;28;20078;-65
2022/05/02 06:58:06;;;;;;;;;;;;;;;12.96;47.41;101980.22;5121508;28;20420;-64
2022/05/02 07:00:38;;;;;;;10.32;7.22;;;;;;;12.98;47.18;101973.56;5114645;28;19970;-65
2022/05/02 07:03:20;;;;;;;15.13;8.23;;;;;;;13.02;47.20;101977.50;5119634;28;20503;-65
2022/05/02 07:06:05;;;;;;;14.00;8.02;;;;;;;13.03;47.32;101970.25;5110599;28;20047;-65
2022/05/02 07:08:43;;;;;;;13.52;8.20;;;;;;;13.08;47.33;101978.53;5108293;28;20077;-65
2022/05/02 07:11:19;;;;;;;11.27;8.07;;;;;;;13.09;47.33;101971.28;5119976;28;20059;-63
2022/05/02 07:14:01;;;;;;;13.70;8.40;;;;;;;13.09;47.33;101979.38;5113425;27;20490;-65
2022/05/02 07:16:31;;;;;;;12.15;8.25;;;;;;;13.11;47.19;101979.97;5109679;27;20079;-64
2022/05/02 07:19:22;;;;;;;12.20;7.53;;;;;;;13.12;47.04;101973.53;5109550;28;20066;-64
2022/05/02 07:21:55;;;;;;;16.25;7.90;;;;;;;13.14;47.30;101974.16;5110030;28;20131;-65
2022/05/02 07:24:50;;;;;;;14.13;7.90;;;;;;;13.16;47.14;101969.38;5123900;27;20047;-66
2022/05/02 07:27:37;;;;;;;13.18;7.68;;;;;;;13.17;47.15;101974.59;5117727;28;20138;-64
2022/05/02 07:30:05;;;;;;;11.83;8.00;;;;;;;13.16;46.78;101975.66;5117086;28;20071;-65
2022/05/02 07:32:33;;;;;;;11.48;8.15;;;;;;;13.17;47.21;101966.50;5120419;28;20055;-65
2022/05/02 07:35:02;;;;;;;10.63;7.70;;;;;;;13.17;47.58;101968.38;5121202;28;20050;-65
2022/05/02 07:37:33;;;;;;;14.23;8.27;;;;;;;13.17;47.61;101971.06;5118950;28;20060;-64
2022/05/02 07:40:02;;;;;;;11.27;7.57;;;;;;;13.17;47.51;101965.69;5113448;28;20222;-64
2022/05/02 07:42:38;;;;;;;9.57;7.68;;;;;;;13.07;47.21;101955.28;5116707;28;20118;-65
2022/05/02 07:45:10;;;;;;;15.68;7.55;;;;;;;13.18;47.67;101970.88;4755417;28;9999882;-64
2022/05/02 07:47:41;;;;;;;10.27;6.82;;;;;;;13.19;47.70;101972.53;5112149;28;20083;-64
2022/05/02 07:50:11;;;;;;;11.07;6.63;;;;;;;13.21;47.61;101969.63;5122661;28;20083;-64
2022/05/02 07:52:40;;;;;;;10.40;6.70;;;;;;;13.27;47.46;101972.28;5124181;28;20075;-64
2022/05/02 07:55:10;;;;;;;9.70;6.70;;;;;;;13.33;47.37;101970.63;5116224;28;20051;-64
2022/05/02 07:57:43;;;;;;;10.82;7.80;;;;;;;13.38;47.35;101964.56;5123596;28;20055;-64
2022/05/02 08:00:13;;;;;;;11.38;6.75;;;;;;;13.49;47.01;101972.00;5111173;28;20086;-64
2022/05/02 08:02:41;;;;;;;12.27;6.88;;;;;;;13.66;46.78;101968.63;5123824;28;20055;-64
2022/05/02 08:05:10;;;;;;;12.77;6.63;;;;;;;13.86;46.12;101968.53;5123752;28;20055;-65
2022/05/02 08:07:42;;;;;;;10.52;6.00;;;;;;;13.95;45.83;101972.59;5117864;28;20048;-64
2022/05/02 08:10:40;;;;;;;13.27;6.50;;;;;;;13.97;46.25;101972.38;5127601;28;20048;-64
2022/05/02 08:13:26;;;;;;;9.10;6.47;;;;;;;13.90;45.90;101964.31;5110479;28;20091;-65
2022/05/02 08:16:02;;;;;;;8.97;6.87;;;;;;;13.83;46.10;101966.25;5119827;28;20135;-64
2022/05/02 08:19:02;;;;;;;10.18;6.53;;;;;;;13.80;46.52;101966.69;5123464;28;20315;-64
2022/05/02 08:21:38;;;;;;;11.52;6.20;;;;;;;13.78;46.42;101970.66;5100660;28;20079;-64
2022/05/02 08:27:36;;;;;;;9.05;6.15;;;;;;;13.76;46.67;101961.94;5123288;28;20048;-65
2022/05/02 08:30:08;;;;;;;9.00;6.38;;;;;;;13.75;46.97;101961.09;5110469;28;20078;-64
2022/05/02 08:32:45;;;;;;;8.85;5.97;;;;;;;13.75;46.49;101958.41;5123225;28;20051;-65
2022/05/02 08:35:17;;;;;;;11.23;6.53;;;;;;;13.76;46.45;101961.94;5128685;28;20055;-64
2022/05/02 08:37:58;;;;;;;8.23;5.97;;;;;;;13.76;46.73;101962.75;5120224;28;20071;-64
2022/05/02 08:40:51;;;;;;;8.02;6.05;;;;;;;13.77;46.48;101966.28;5116003;28;20044;-65
2022/05/02 08:43:46;;;;;;;7.82;5.78;;;;;;;13.78;46.71;101959.84;5109716;28;20437;-64
2022/05/02 08:46:51;;;;;;;8.35;6.22;;;;;;;13.82;46.74;101961.06;5114071;28;20050;-65
2022/05/02 08:49:57;;;;;;;11.57;6.40;;;;;;;13.84;46.57;101958.97;5083715;28;20082;-64
2022/05/02 08:53:06;;;;;;;8.27;5.45;;;;;;;13.84;46.51;101959.81;5107856;28;20120;-65
2022/05/02 08:55:40;;;;;;;8.13;5.20;;;;;;;13.85;46.27;101957.94;5102947;27;20083;-64
2022/05/02 08:58:49;;;;;;;9.05;5.68;;;;;;;13.89;45.84;101959.13;5127126;28;20052;-64
2022/05/02 09:01:47;;;;;;;9.98;6.00;;;;;;;13.89;46.17;101956.41;5115520;28;20058;-65
2022/05/02 09:04:50;;;;;;;7.13;5.20;;;;;;;13.92;46.20;101953.28;5114273;28;20051;-65
2022/05/02 09:08:03;;;;;;;13.40;6.82;;;;;;;13.94;45.86;101951.19;5106413;27;20048;-65
2022/05/02 09:10:52;;;;;;;8.43;5.60;;;;;;;13.96;46.07;101951.81;5114978;28;20062;-65
2022/05/02 09:13:56;;;;;;;9.32;5.20;;;;;;;13.99;46.36;101949.50;5122532;28;20051;-66
2022/05/02 09:17:12;;;;;;;7.15;5.00;;;;;;;14.04;45.88;101953.41;5119640;28;20086;-65
2022/05/02 09:20:24;;;;;;;10.43;5.38;;;;;;;14.06;45.85;101954.84;5109757;28;20055;-65
2022/05/02 09:23:53;;;;;;;7.90;5.00;;;;;;;14.07;45.46;101950.28;5076863;28;20052;-65
2022/05/02 09:27:06;;;;;;;8.60;4.80;;;;;;;14.09;45.61;101950.91;5080547;28;20064;-65
2022/05/02 09:30:11;;;;;;;8.05;4.78;;;;;;;14.10;45.40;101947.16;5081856;28;20084;-64
2022/05/02 09:33:02;;;;;;;7.32;5.18;;;;;;;14.11;45.15;101944.22;5082936;28;20052;-64
2022/05/02 09:35:33;;;;;;;8.52;4.70;;;;;;;14.13;45.24;101939.41;5082241;28;20083;-65
2022/05/02 09:38:16;;;;;;;10.48;4.90;;;;;;;14.15;45.16;101940.03;5081510;28;20102;-65
2022/05/02 09:40:46;;;;;;;9.05;4.68;;;;;;;14.17;45.31;101939.81;5082004;28;20064;-64
2022/05/02 09:49:49;;;;;;;10.18;5.57;;;;;;;14.21;44.76;101928.34;5082067;28;20075;-67
2022/05/02 09:52:25;;;;;;;;;;;;;;;14.25;45.28;101934.97;5076833;28;20140;-67
2022/05/02 09:58:43;;;;;;;11.77;4.45;;;;;;;14.33;45.42;101923.06;5124563;28;20090;-65
2022/05/02 10:01:20;;;;;;;7.75;4.63;;;;;;;14.38;45.66;101919.69;5134831;27;20444;-64
2022/05/02 10:04:18;;;;;;;7.25;4.28;;;;;;;14.43;45.41;101928.81;5126065;28;20051;-64
2022/05/02 10:06:50;;;;;;;7.35;4.07;;;;;;;14.46;45.23;101922.97;5117247;28;20048;-68
2022/05/02 10:09:35;;;;;;;7.10;4.18;;;;;;;14.51;45.48;101916.91;5123823;27;20130;-65
2022/05/02 10:12:23;;;;;;;5.28;3.95;;;;;;;14.56;45.78;101920.59;5119184;28;20044;-67
2022/05/02 10:15:00;;;;;;;5.97;4.28;;;;;;;14.60;45.81;101915.56;5111214;28;20051;-65
2022/05/02 10:17:52;;;;;;;8.23;3.83;;;;;;;14.65;45.40;101926.56;5123950;28;20066;-66
2022/05/02 10:20:21;;;;;;;5.63;4.00;;;;;;;14.66;45.30;101928.22;5123558;27;20061;-65
2022/05/02 10:23:03;;;;;;;5.22;4.07;;;;;;;14.70;45.07;101920.47;5124962;27;20050;-66
2022/05/02 10:25:43;;;;;;;7.77;3.80;;;;;;;14.75;45.54;101910.63;4982680;28;10000530;-66
2022/05/02 10:28:26;;;;;;;5.88;3.67;;;;;;;14.92;46.29;101913.59;5119069;28;20397;-65
2022/05/02 10:31:05;;;;;;;8.35;3.22;;;;;;;14.98;45.74;101905.41;5119845;27;20046;-64
2022/05/02 10:33:35;;;;;;;;;;;;;;;15.00;44.98;101912.47;5126478;27;20063;-64
2022/05/02 10:36:05;;;;;;;6.38;3.60;;;;;;;14.98;44.78;101910.81;5120617;28;19973;-66
2022/05/02 10:38:46;;;;;;;7.55;3.92;;;;;;;15.01;45.03;101900.59;5118877;28;20043;-65
2022/05/02 10:41:19;;;;;;;9.23;4.10;;;;;;;15.07;44.74;101902.38;5125639;27;20546;-64
2022/05/02 10:43:51;;;;;;;7.28;3.63;;;;;;;15.23;45.98;101905.31;5112222;28;20044;-65
2022/05/02 10:46:22;;;;;;;5.22;3.45;;;;;;;15.24;45.71;101889.91;5122700;28;20074;-64
2022/05/02 10:48:54;;;;;;;6.00;3.65;;;;;;;15.32;45.23;101892.28;5125358;28;20052;-65
2022/05/02 10:51:35;;;;;;;6.10;3.15;;;;;;;15.34;44.35;101892.06;5120002;28;20055;-65
2022/05/02 10:54:10;;;;;;;9.25;3.50;;;;;;;15.36;44.59;101890.78;5124664;27;20173;-66
2022/05/02 10:56:43;;;;;;;5.47;3.90;;;;;;;15.36;44.42;101893.50;4758853;28;10000319;-66
2022/05/02 10:59:13;;;;;;;9.52;4.00;;;;;;;15.34;44.31;101887.47;5118229;28;20388;-67
2022/05/02 11:02:19;;;;;;;7.10;4.00;;;;;;;15.38;44.35;101877.84;5120517;28;20066;-66
2022/05/02 11:05:04;;;;;;;7.40;3.50;;;;;;;15.45;44.46;101873.16;5130469;27;20465;-66
2022/05/02 11:07:44;;;;;;;8.52;3.75;;;;;;;15.52;44.76;101870.34;5119079;28;20047;-65
2022/05/02 11:10:13;;;;;;;8.30;3.55;;;;;;;15.61;44.51;101869.81;5115142;28;20075;-65
2022/05/02 11:12:43;;;;;;;4.53;2.63;;;;;;;15.70;44.49;101864.88;5111551;28;20058;-65
2022/05/02 11:15:14;;;;;;;7.10;3.40;;;;;;;15.77;44.57;101867.50;5118021;28;20062;-66
2022/05/02 11:18:07;;;;;;;5.57;3.22;;;;;;;15.77;43.55;101859.38;5113902;28;20077;-65
2022/05/02 11:20:46;;;;;;;7.30;3.90;;;;;;;15.77;42.47;101857.50;5119144;28;20040;-65
2022/05/02 11:23:38;;;;;;;8.57;5.90;;;;;;;15.70;41.31;101859.47;5120648;28;20052;-69
2022/05/02 11:26:21;;;;;;;7.55;4.63;;;;;;;15.67;41.95;101862.63;5123979;27;20048;-66
2022/05/02 11:29:06;;;;;;;7.30;4.32;;;;;;;15.62;42.83;101840.81;5124356;28;20054;-65
2022/05/02 11:31:41;;;;;;;6.28;3.75;;;;;;;15.73;43.40;101842.75;5121773;28;20047;-66
2022/05/02 11:34:26;;;;;;;6.55;4.15;;;;;;;15.84;42.69;101849.25;5120756;28;20059;-64
2022/05/02 11:36:58;;;;;;;9.05;4.50;;;;;;;15.85;42.20;101848.19;5116922;28;20056;-63
2022/05/02 11:39:36;;;;;;;11.05;4.18;;;;;;;15.89;42.52;101833.94;5119681;28;20052;-64
2022/05/02 11:42:10;;;;;;;10.77;4.45;;;;;;;15.93;42.49;101840.56;5119348;28;20108;-64
2022/05/02 11:44:48;;;;;;;6.93;3.42;;;;;;;15.99;42.78;101838.78;5122810;28;20169;-66
2022/05/02 11:47:20;;;;;;;6.07;3.60;;;;;;;16.05;42.34;101845.16;5116858;28;20046;-65
2022/05/02 11:50:03;;;;;;;6.55;3.97;;;;;;;16.08;41.97;101842.81;5124287;28;20059;-65
2022/05/02 11:52:32;;;;;;;5.22;4.05;;;;;;;16.12;42.13;101833.16;5123210;28;20075;-65
2022/05/02 11:55:02;;;;;;;5.70;3.17;;;;;;;16.20;42.37;101840.13;5123922;28;20047;-65
2022/05/02 11:57:36;;;;;;;5.47;3.33;;;;;;;16.25;42.79;101838.34;5123882;28;20079;-64
2022/05/02 12:00:12;;;;;;;6.50;3.85;;;;;;;16.29;42.12;101833.28;5118089;28;20061;-66
2022/05/02 12:02:54;;;;;;;7.15;4.25;;;;;;;16.33;42.24;101839.06;5118442;28;20091;-65
2022/05/02 12:05:28;;;;;;;5.65;3.50;;;;;;;16.36;40.99;101833.16;5123945;28;20484;-64
2022/05/02 12:07:57;;;;;;;4.53;3.35;;;;;;;16.39;41.14;101828.09;5123351;28;20048;-66
2022/05/02 12:10:39;;;;;;;5.50;3.45;;;;;;;16.33;40.74;101814.66;5117796;28;20071;-66
2022/05/02 12:13:10;;;;;;;11.40;4.35;;;;;;;16.44;40.36;101830.09;5113860;28;20389;-66
2022/05/02 12:15:57;;;;;;;6.25;4.00;;;;;;;16.45;40.38;101829.03;5120590;28;20051;-65
2022/05/02 12:18:39;;;;;;;5.68;3.58;;;;;;;16.49;40.80;101816.63;5114741;28;20050;-65